Gaiman, Argentina
Current Conditions -  °F | °C
As of 8:00 PM on Wednesday 26 Nov 2014 (Local Time) from SAVC Reporting Station
Clear Clear  
Wind Chill: 17°   Ceiling: Unl
Heat Index: 17°   Visibility: 6mi
Dew Point:   Wind: 17mph
Humidity: 32%   Direction: 50°NE
Pressure: 29.85"   Gusts: NA
Location:  43.28°S, 65.48°W
Report Text: SAVC 262300Z 05015KT CAVOK 17/00 Q1011
Loading
Personal Weather Stations






























Interactive Weather Map New forecast layout! Learn more

10-Day Weather Forecast

Advertisements
Track Severe Weather on mobile